Time;durP1;ratioP1;P1;durP2;ratioP2;P2;SDS_P1;SDS_P2;PMS_P1;PMS_P2;Temp;Humidity;BMP_temperature;BMP_pressure;BME280_temperature;BME280_humidity;BME280_pressure;Samples;Min_cycle;Max_cycle;Signal;HPM_P1;HPM_P2
2024/02/17 00:00:48;;;;;;;17.65;8.93;;;9.30;99.90;;;;;;5062106;28;20041;-78
2024/02/17 00:03:17;;;;;;;15.95;7.93;;;9.20;99.90;;;;;;5062620;28;20041;-78
2024/02/17 00:05:43;;;;;;;21.17;8.30;;;9.10;99.90;;;;;;5062218;28;20095;-78
2024/02/17 00:08:08;;;;;;;23.75;8.20;;;9.20;99.90;;;;;;5062197;28;20049;-78
2024/02/17 00:10:34;;;;;;;38.78;10.20;;;9.20;99.90;;;;;;5061811;28;20512;-78
2024/02/17 00:13:00;;;;;;;22.30;9.00;;;9.10;99.90;;;;;;5062422;28;20048;-78
2024/02/17 00:15:25;;;;;;;21.90;10.77;;;9.20;99.90;;;;;;5062484;28;20049;-78
2024/02/17 00:17:51;;;;;;;23.27;8.65;;;9.10;99.90;;;;;;5062075;28;20035;-78
2024/02/17 00:20:17;;;;;;;17.17;9.25;;;9.30;99.90;;;;;;5061716;28;20092;-78
2024/02/17 00:22:43;;;;;;;22.13;9.23;;;9.20;99.90;;;;;;5060983;28;20079;-78
2024/02/17 00:25:09;;;;;;;16.52;8.18;;;9.30;99.90;;;;;;5061271;28;20040;-78
2024/02/17 00:27:35;;;;;;;18.25;8.40;;;9.30;99.90;;;;;;5061437;28;20068;-78
2024/02/17 00:30:02;;;;;;;21.35;8.98;;;9.20;99.90;;;;;;5064979;28;20103;-78
2024/02/17 00:32:28;;;;;;;30.30;10.48;;;9.30;99.90;;;;;;5047769;28;20588;-78
2024/02/17 00:34:53;;;;;;;20.55;8.20;;;9.20;99.90;;;;;;5047614;28;20088;-78
2024/02/17 00:37:19;;;;;;;18.77;9.55;;;9.20;99.90;;;;;;5064414;28;20076;-78
2024/02/17 00:39:44;;;;;;;20.73;9.73;;;9.40;99.90;;;;;;5063466;28;20109;-78
2024/02/17 00:42:10;;;;;;;19.38;9.05;;;9.30;99.90;;;;;;5064095;28;20096;-78
2024/02/17 00:44:36;;;;;;;17.77;9.38;;;9.30;99.90;;;;;;5063667;28;20037;-78
2024/02/17 00:47:02;;;;;;;18.70;9.75;;;9.30;99.90;;;;;;5063946;28;20033;-78
2024/02/17 00:49:28;;;;;;;20.65;9.70;;;9.30;99.90;;;;;;5064212;28;20048;-78
2024/02/17 00:51:54;;;;;;;20.75;9.88;;;9.20;99.90;;;;;;5063752;28;20037;-78
2024/02/17 00:54:19;;;;;;;20.58;8.00;;;9.20;99.90;;;;;;5063601;28;20136;-78
2024/02/17 00:56:45;;;;;;;24.30;9.73;;;9.30;99.90;;;;;;5063945;28;20029;-79
2024/02/17 00:59:11;;;;;;;20.23;8.82;;;9.40;99.90;;;;;;5063200;28;20037;-78
2024/02/17 01:01:36;;;;;;;21.83;8.57;;;9.30;99.90;;;;;;5063216;28;20060;-78
2024/02/17 01:04:02;;;;;;;17.45;7.97;;;9.30;99.90;;;;;;5063591;28;20066;-78
2024/02/17 01:06:28;;;;;;;18.65;8.88;;;9.30;99.90;;;;;;5062831;28;20041;-78
2024/02/17 01:08:54;;;;;;;20.88;8.00;;;9.20;99.90;;;;;;5062449;28;20044;-78
2024/02/17 01:11:20;;;;;;;18.65;8.00;;;9.20;99.90;;;;;;5062427;28;20099;-78
2024/02/17 01:13:46;;;;;;;16.63;8.55;;;9.30;99.90;;;;;;5060820;28;20045;-78
2024/02/17 01:16:12;;;;;;;19.75;7.95;;;9.30;99.90;;;;;;5059463;28;20489;-78
2024/02/17 01:18:37;;;;;;;19.20;8.35;;;9.40;99.90;;;;;;5060656;28;20037;-77
2024/02/17 01:21:03;;;;;;;17.98;8.40;;;9.30;99.90;;;;;;5060680;28;20041;-77
2024/02/17 01:23:28;;;;;;;18.27;8.75;;;9.20;99.90;;;;;;5043115;28;20049;-78
2024/02/17 01:25:55;;;;;;;19.50;9.15;;;9.20;99.90;;;;;;5061372;28;20109;-78
2024/02/17 01:28:21;;;;;;;19.38;8.27;;;9.20;99.90;;;;;;5061597;28;20424;-78
2024/02/17 01:30:46;;;;;;;18.75;8.00;;;9.20;99.90;;;;;;5060308;28;20033;-78
2024/02/17 01:33:12;;;;;;;20.17;8.25;;;9.00;99.90;;;;;;5060838;28;20066;-78
2024/02/17 01:35:38;;;;;;;15.15;7.25;;;9.10;99.90;;;;;;5060914;28;20033;-78
2024/02/17 01:38:07;;;;;;;17.25;8.27;;;8.90;99.90;;;;;;5059764;28;20056;-78
2024/02/17 01:40:33;;;;;;;18.90;8.63;;;9.00;99.90;;;;;;5059785;28;20041;-78
2024/02/17 01:42:59;;;;;;;19.00;8.15;;;8.90;99.90;;;;;;5060378;28;20045;-78
2024/02/17 01:45:25;;;;;;;18.73;8.80;;;9.10;99.90;;;;;;5060269;28;20037;-78
2024/02/17 01:47:51;;;;;;;20.73;8.25;;;9.10;99.90;;;;;;5059208;28;20039;-78
2024/02/17 01:50:17;;;;;;;21.70;8.60;;;8.90;99.90;;;;;;5058380;28;20045;-78
2024/02/17 01:52:45;;;;;;;16.13;8.10;;;8.90;99.90;;;;;;5059237;28;20086;-78
2024/02/17 01:55:11;;;;;;;18.40;7.53;;;8.90;99.90;;;;;;5059738;28;20495;-78
2024/02/17 01:57:37;;;;;;;21.73;8.32;;;8.90;99.90;;;;;;5059759;28;20041;-78
2024/02/17 02:00:04;;;;;;;19.60;8.43;;;8.90;99.90;;;;;;5060269;28;20041;-78
2024/02/17 02:02:31;;;;;;;25.00;8.52;;;9.10;99.90;;;;;;5059815;28;20037;-78
2024/02/17 02:04:57;;;;;;;22.17;7.22;;;9.00;99.90;;;;;;5058496;28;20041;-77
2024/02/17 02:07:22;;;;;;;19.55;7.88;;;9.00;99.90;;;;;;5059644;28;20082;-78
2024/02/17 02:09:48;;;;;;;24.05;8.88;;;9.20;99.90;;;;;;5059706;28;20055;-78
2024/02/17 02:12:14;;;;;;;19.95;8.85;;;9.10;99.90;;;;;;5059565;28;20057;-78
2024/02/17 02:14:39;;;;;;;16.35;7.40;;;9.20;99.90;;;;;;5058698;28;20086;-78
2024/02/17 02:17:05;;;;;;;22.92;9.70;;;9.10;99.90;;;;;;5061152;28;20044;-78
2024/02/17 02:19:31;;;;;;;20.20;8.75;;;8.90;99.90;;;;;;5062051;28;20468;-78
2024/02/17 02:21:56;;;;;;;18.30;8.57;;;9.10;99.90;;;;;;5059351;28;20048;-78
2024/02/17 02:24:22;;;;;;;20.25;10.38;;;8.90;99.90;;;;;;5060084;28;20040;-78
2024/02/17 02:26:48;;;;;;;17.55;8.98;;;9.00;99.90;;;;;;5061965;28;20043;-78
2024/02/17 02:29:14;;;;;;;22.88;9.23;;;9.10;99.90;;;;;;5065641;28;20060;-78
2024/02/17 02:31:40;;;;;;;22.35;8.48;;;9.10;99.90;;;;;;5065255;28;20120;-78
2024/02/17 02:34:06;;;;;;;19.90;8.75;;;8.90;99.90;;;;;;5066187;28;20053;-78
2024/02/17 02:36:31;;;;;;;20.55;8.90;;;9.00;99.90;;;;;;5064348;28;20037;-78
2024/02/17 02:38:57;;;;;;;19.08;9.02;;;9.00;99.90;;;;;;5066826;28;20033;-78
2024/02/17 02:41:23;;;;;;;16.60;9.18;;;8.90;99.90;;;;;;5066978;28;20036;-78
2024/02/17 02:43:49;;;;;;;24.77;9.00;;;9.10;99.90;;;;;;5067173;28;20041;-78
2024/02/17 02:46:15;;;;;;;26.70;10.43;;;9.00;99.90;;;;;;5050209;28;20040;-78
2024/02/17 02:48:40;;;;;;;21.40;9.57;;;9.00;99.90;;;;;;5066649;28;20037;-78
2024/02/17 02:51:07;;;;;;;19.98;9.27;;;9.10;99.90;;;;;;5066532;28;20033;-78
2024/02/17 02:53:33;;;;;;;26.95;10.88;;;9.10;99.90;;;;;;5065707;28;20071;-78
2024/02/17 02:55:58;;;;;;;22.88;9.65;;;9.10;99.90;;;;;;5066733;28;20124;-78
2024/02/17 02:58:24;;;;;;;17.15;9.25;;;9.10;99.90;;;;;;5067482;28;20037;-78
2024/02/17 03:00:50;;;;;;;24.00;9.98;;;9.00;99.90;;;;;;5066699;28;20044;-78
2024/02/17 03:03:16;;;;;;;19.80;9.27;;;9.20;99.90;;;;;;5068179;28;20045;-78
2024/02/17 03:05:41;;;;;;;22.80;10.00;;;9.10;99.90;;;;;;5066068;28;20100;-79
2024/02/17 03:08:10;;;;;;;24.55;10.60;;;9.00;99.90;;;;;;5064026;28;20068;-78
2024/02/17 03:10:35;;;;;;;20.05;9.80;;;9.10;99.90;;;;;;5064782;28;20064;-79
2024/02/17 03:13:01;;;;;;;19.58;9.98;;;9.10;99.90;;;;;;5065944;28;20094;-78
2024/02/17 03:15:26;;;;;;;14.80;8.57;;;9.10;99.90;;;;;;5067051;28;20063;-79
2024/02/17 03:17:53;;;;;;;22.58;9.88;;;8.90;99.90;;;;;;5066489;28;20055;-78
2024/02/17 03:20:19;;;;;;;17.75;8.95;;;8.90;99.90;;;;;;5066236;28;20044;-79
2024/02/17 03:22:45;;;;;;;12.38;6.95;;;8.80;99.90;;;;;;5067180;28;20053;-78
2024/02/17 03:25:11;;;;;;;20.42;8.07;;;8.90;99.90;;;;;;5067891;28;20079;-78
2024/02/17 03:27:37;;;;;;;14.43;7.68;;;8.90;99.90;;;;;;5067183;28;20065;-78
2024/02/17 03:30:06;;;;;;;14.15;7.47;;;8.90;99.90;;;;;;5066724;28;20044;-78
2024/02/17 03:32:33;;;;;;;14.27;7.53;;;8.80;99.90;;;;;;5066588;28;20044;-78
2024/02/17 03:35:00;;;;;;;15.90;6.75;;;8.70;99.90;;;;;;5067120;28;20047;-78
2024/02/17 03:37:26;;;;;;;14.68;6.45;;;8.80;99.90;;;;;;5066977;28;20029;-78
2024/02/17 03:39:53;;;;;;;14.60;6.82;;;8.80;99.90;;;;;;5066746;28;20409;-78
2024/02/17 03:42:19;;;;;;;15.02;6.50;;;8.80;99.90;;;;;;5050395;28;20045;-78
2024/02/17 03:44:45;;;;;;;12.75;6.38;;;8.80;99.90;;;;;;5067047;28;20041;-79
2024/02/17 03:47:14;;;;;;;13.45;6.45;;;8.70;99.90;;;;;;5067395;28;20044;-79
2024/02/17 03:49:39;;;;;;;9.77;5.55;;;8.70;99.90;;;;;;5066665;28;20037;-78
2024/02/17 03:52:06;;;;;;;18.00;7.07;;;8.70;99.90;;;;;;5067685;28;20083;-78
2024/02/17 03:54:31;;;;;;;16.35;6.13;;;8.80;99.90;;;;;;5067220;28;20052;-79
2024/02/17 03:56:58;;;;;;;13.90;6.22;;;8.70;99.90;;;;;;5066823;28;20041;-78
2024/02/17 03:59:23;;;;;;;9.80;5.93;;;8.80;99.90;;;;;;5067081;28;20041;-78
2024/02/17 04:01:55;;;;;;;12.07;6.28;;;8.70;99.90;;;;;;5067281;28;20037;-78
2024/02/17 04:04:23;;;;;;;13.15;5.15;;;8.60;99.90;;;;;;5067440;28;20044;-78
2024/02/17 04:06:49;;;;;;;9.65;5.03;;;8.50;99.90;;;;;;5048716;28;20045;-79
2024/02/17 04:09:15;;;;;;;11.85;5.40;;;8.60;99.90;;;;;;5062801;28;20456;-78
2024/02/17 04:11:41;;;;;;;15.25;5.50;;;8.60;99.90;;;;;;5061648;28;20045;-78
2024/02/17 04:14:07;;;;;;;10.82;5.72;;;8.60;99.90;;;;;;5059606;28;20041;-78
2024/02/17 04:16:32;;;;;;;9.57;4.97;;;8.70;99.90;;;;;;5057050;28;20171;-78
2024/02/17 04:18:58;;;;;;;11.45;5.35;;;8.60;99.90;;;;;;5063146;28;20033;-78
2024/02/17 04:21:24;;;;;;;17.20;5.82;;;8.60;99.90;;;;;;5062064;28;20037;-78
2024/02/17 04:23:49;;;;;;;16.30;6.05;;;8.60;99.90;;;;;;5061152;28;20122;-78
2024/02/17 04:26:15;;;;;;;8.98;5.55;;;8.50;99.90;;;;;;5063252;28;20044;-78
2024/02/17 04:28:41;;;;;;;9.95;5.55;;;8.60;99.90;;;;;;5042655;28;20196;-78
2024/02/17 04:31:07;;;;;;;18.48;6.80;;;8.60;99.90;;;;;;5083118;22;20144;-73
2024/02/17 04:33:34;;;;;;;9.32;5.43;;;8.60;99.90;;;;;;5051262;28;20045;-70
2024/02/17 04:36:00;;;;;;;13.18;5.78;;;8.60;99.90;;;;;;5051396;28;20043;-70
2024/02/17 04:38:25;;;;;;;13.65;5.65;;;8.60;99.90;;;;;;5051252;28;20037;-73
2024/02/17 04:40:51;;;;;;;13.60;5.63;;;8.70;99.90;;;;;;5050696;28;20516;-71
2024/02/17 04:43:17;;;;;;;9.30;5.05;;;8.50;99.90;;;;;;5050866;28;20523;-71
2024/02/17 04:45:42;;;;;;;10.13;5.38;;;8.60;99.90;;;;;;5051006;28;20033;-71
2024/02/17 04:48:08;;;;;;;17.08;4.72;;;8.60;99.90;;;;;;5050915;28;20127;-71
2024/02/17 04:50:33;;;;;;;8.88;4.40;;;8.40;99.90;;;;;;5051043;28;20048;-71
2024/02/17 04:52:59;;;;;;;11.88;4.72;;;8.50;99.90;;;;;;5033235;28;20040;-71
2024/02/17 04:55:26;;;;;;;11.75;4.95;;;8.60;99.90;;;;;;5051165;28;20048;-71
2024/02/17 04:57:52;;;;;;;9.80;4.18;;;8.40;99.90;;;;;;5050901;28;20374;-71
2024/02/17 05:00:20;;;;;;;12.40;4.35;;;8.40;99.90;;;;;;5050667;28;20036;-71
2024/02/17 05:02:46;;;;;;;7.35;3.47;;;8.50;99.90;;;;;;5050990;28;20033;-71
2024/02/17 05:05:15;;;;;;;6.80;3.75;;;8.40;99.90;;;;;;5050858;28;20385;-71
2024/02/17 05:07:41;;;;;;;7.95;4.07;;;8.50;99.90;;;;;;5033136;28;20044;-71
2024/02/17 05:10:07;;;;;;;11.80;4.05;;;8.50;99.90;;;;;;5050865;28;20045;-71
2024/02/17 05:12:33;;;;;;;9.82;3.15;;;8.40;99.90;;;;;;5050812;28;20033;-71
2024/02/17 05:14:59;;;;;;;7.65;2.72;;;8.40;99.90;;;;;;5050871;28;20069;-71
2024/02/17 05:17:26;;;;;;;3.17;1.70;;;8.30;99.90;;;;;;5054740;28;20112;-71
2024/02/17 05:19:51;;;;;;;2.97;1.70;;;8.30;99.90;;;;;;5054551;28;20041;-71
2024/02/17 05:22:17;;;;;;;5.65;1.60;;;8.30;99.90;;;;;;5054418;28;20508;-71
2024/02/17 05:24:43;;;;;;;4.35;1.80;;;8.40;99.90;;;;;;5054345;28;20120;-71
2024/02/17 05:27:09;;;;;;;3.60;1.58;;;8.30;99.90;;;;;;5054290;28;20148;-71
2024/02/17 05:29:35;;;;;;;5.15;1.58;;;8.20;99.90;;;;;;5054050;28;20032;-71
2024/02/17 05:32:00;;;;;;;3.28;1.35;;;8.30;99.90;;;;;;5053970;28;20048;-71
2024/02/17 05:34:26;;;;;;;2.38;1.33;;;8.20;99.90;;;;;;5054227;28;20044;-71
2024/02/17 05:36:52;;;;;;;2.92;1.45;;;8.20;99.90;;;;;;5054087;28;20060;-71
2024/02/17 05:39:17;;;;;;;3.15;1.55;;;8.20;99.90;;;;;;5054007;28;20048;-71
2024/02/17 05:41:43;;;;;;;3.25;1.10;;;8.20;99.90;;;;;;5053836;28;20060;-71
2024/02/17 05:44:09;;;;;;;2.72;1.40;;;8.20;99.90;;;;;;5053883;28;20102;-71
2024/02/17 05:46:34;;;;;;;4.10;1.80;;;8.00;99.90;;;;;;5036051;28;20048;-71
2024/02/17 05:49:00;;;;;;;3.88;1.50;;;8.10;99.90;;;;;;5053974;28;20055;-71
2024/02/17 05:51:25;;;;;;;1.90;1.33;;;8.10;99.90;;;;;;5053568;28;20068;-71
2024/02/17 05:53:52;;;;;;;3.60;1.75;;;7.90;99.90;;;;;;5053675;28;20164;-71
2024/02/17 05:56:17;;;;;;;5.55;1.48;;;7.80;99.90;;;;;;5053680;28;20123;-71
2024/02/17 05:58:45;;;;;;;3.03;1.15;;;7.90;99.90;;;;;;5053470;28;20163;-71
2024/02/17 06:01:11;;;;;;;3.25;1.58;;;7.80;99.90;;;;;;5053578;28;20041;-71
2024/02/17 06:03:36;;;;;;;5.50;1.30;;;7.80;99.90;;;;;;5053825;28;20120;-71
2024/02/17 06:06:03;;;;;;;4.72;1.10;;;7.70;99.90;;;;;;5053638;28;20045;-71
2024/02/17 06:08:29;;;;;;;2.88;0.80;;;7.80;99.90;;;;;;5053408;28;20566;-71
2024/02/17 06:10:55;;;;;;;3.15;0.80;;;7.80;99.90;;;;;;5053145;28;20398;-71
2024/02/17 06:13:21;;;;;;;2.22;0.82;;;7.70;99.90;;;;;;5053256;28;20040;-71
2024/02/17 06:15:48;;;;;;;1.92;0.80;;;7.70;99.90;;;;;;5053468;28;20045;-71
2024/02/17 06:21:10;;;;;;;4.43;1.48;;;7.70;99.90;;;;;;5053116;28;20502;-71
2024/02/17 06:23:36;;;;;;;2.17;1.17;;;7.70;99.90;;;;;;5053158;28;20037;-71
2024/02/17 06:26:02;;;;;;;3.65;0.82;;;7.70;99.90;;;;;;5053120;28;20037;-70
2024/02/17 06:28:28;;;;;;;3.10;0.68;;;7.70;99.90;;;;;;5035325;28;20546;-71
2024/02/17 06:30:53;;;;;;;3.15;0.73;;;7.60;99.90;;;;;;5053071;28;20045;-71
2024/02/17 06:33:20;;;;;;;9.40;1.23;;;7.60;99.90;;;;;;5035198;28;20036;-71
2024/02/17 06:35:46;;;;;;;5.75;1.40;;;7.60;99.90;;;;;;5053041;28;20045;-71
2024/02/17 06:38:11;;;;;;;3.63;1.25;;;7.60;99.90;;;;;;5035061;28;20048;-71
2024/02/17 06:40:37;;;;;;;3.47;1.10;;;7.60;99.90;;;;;;5052948;28;20045;-71
2024/02/17 06:43:03;;;;;;;3.63;1.15;;;7.60;99.90;;;;;;5034889;28;20052;-71
2024/02/17 06:45:29;;;;;;;5.45;1.55;;;7.60;99.90;;;;;;5034843;28;20409;-71
2024/02/17 06:47:55;;;;;;;2.75;1.67;;;7.60;99.90;;;;;;5052643;28;20417;-71
2024/02/17 06:50:20;;;;;;;2.90;1.08;;;7.60;99.90;;;;;;5034683;28;20048;-71
2024/02/17 06:52:46;;;;;;;4.50;1.30;;;7.50;99.90;;;;;;5052425;28;20037;-72
2024/02/17 06:55:12;;;;;;;6.47;1.38;;;7.50;99.90;;;;;;5052764;28;20079;-71
2024/02/17 06:57:37;;;;;;;4.88;1.27;;;7.70;99.90;;;;;;5052647;28;20041;-70
2024/02/17 07:00:04;;;;;;;6.28;1.40;;;7.60;99.90;;;;;;5052176;28;20037;-71
2024/02/17 07:02:30;;;;;;;3.70;1.70;;;7.60;99.90;;;;;;5052498;28;20037;-70
2024/02/17 07:04:55;;;;;;;3.53;1.33;;;7.60;99.90;;;;;;5052430;28;20036;-70
2024/02/17 07:07:23;;;;;;;4.22;1.52;;;7.70;99.90;;;;;;5052306;28;20040;-71
2024/02/17 07:09:49;;;;;;;6.40;1.45;;;7.60;99.90;;;;;;5052198;28;20115;-71
2024/02/17 07:12:14;;;;;;;5.90;1.50;;;7.60;99.90;;;;;;5052354;28;20075;-71
2024/02/17 07:14:40;;;;;;;10.50;1.38;;;7.50;99.90;;;;;;5052257;28;20565;-71
2024/02/17 07:17:06;;;;;;;5.28;1.50;;;7.60;99.90;;;;;;5052370;28;20044;-71
2024/02/17 07:19:31;;;;;;;5.57;1.27;;;7.70;99.90;;;;;;5052148;28;20041;-71
2024/02/17 07:21:57;;;;;;;4.47;1.30;;;7.50;99.90;;;;;;5051803;28;20048;-71
2024/02/17 07:24:23;;;;;;;5.07;1.40;;;7.50;99.90;;;;;;5052122;28;20056;-71
2024/02/17 07:26:52;;;;;;;2.65;1.27;;;7.50;99.90;;;;;;5052211;28;20036;-71
2024/02/17 07:29:18;;;;;;;7.20;1.55;;;7.50;99.90;;;;;;5052099;28;20149;-71
2024/02/17 07:31:44;;;;;;;3.38;1.13;;;7.50;99.90;;;;;;5051673;28;20496;-71
2024/02/17 07:34:14;;;;;;;4.03;1.52;;;7.40;99.90;;;;;;5051727;28;20037;-71
2024/02/17 07:36:41;;;;;;;4.32;1.55;;;7.40;99.90;;;;;;5033921;28;20072;-71
2024/02/17 07:39:08;;;;;;;1.23;1.02;;;7.50;99.90;;;;;;5051416;28;20047;-73
2024/02/17 07:41:33;;;;;;;2.85;0.90;;;7.50;99.90;;;;;;5051404;28;20496;-70
2024/02/17 07:43:59;;;;;;;3.40;1.10;;;7.50;99.90;;;;;;5051825;28;20052;-71
2024/02/17 07:46:25;;;;;;;2.45;1.13;;;7.40;99.90;;;;;;5051840;28;20083;-71
2024/02/17 07:48:51;;;;;;;2.95;1.40;;;7.50;99.90;;;;;;5051699;28;20037;-71
2024/02/17 07:51:17;;;;;;;1.75;1.08;;;7.50;99.90;;;;;;5051428;28;20504;-71
2024/02/17 07:53:42;;;;;;;4.35;0.98;;;7.50;99.90;;;;;;5051658;28;20037;-71
2024/02/17 07:56:09;;;;;;;6.50;1.45;;;7.40;99.90;;;;;;5051763;28;20033;-71
2024/02/17 07:58:35;;;;;;;4.47;1.40;;;7.50;99.90;;;;;;5051583;28;20037;-71
2024/02/17 08:01:01;;;;;;;5.05;1.40;;;7.50;99.90;;;;;;5051403;28;20561;-71
2024/02/17 08:03:29;;;;;;;5.00;1.27;;;7.50;99.90;;;;;;5051519;28;20214;-71
2024/02/17 08:05:55;;;;;;;4.57;1.35;;;7.50;99.90;;;;;;5051424;28;20052;-71
2024/02/17 08:08:21;;;;;;;3.40;1.08;;;7.50;99.90;;;;;;5051327;28;20041;-71
2024/02/17 08:10:47;;;;;;;1.98;0.82;;;7.50;99.90;;;;;;5033742;28;20049;-71
2024/02/17 08:13:13;;;;;;;2.33;1.20;;;7.50;99.90;;;;;;5051296;28;20120;-71
2024/02/17 08:15:39;;;;;;;3.28;1.30;;;7.50;99.90;;;;;;5051443;28;20130;-71
2024/02/17 08:18:05;;;;;;;2.83;1.10;;;7.50;99.90;;;;;;5051243;28;20508;-71
2024/02/17 08:20:31;;;;;;;3.92;1.55;;;7.60;99.90;;;;;;5051442;28;20037;-71
2024/02/17 08:22:57;;;;;;;5.22;1.30;;;7.60;99.90;;;;;;5051209;28;20058;-71
2024/02/17 08:25:24;;;;;;;3.55;1.60;;;7.80;99.90;;;;;;5051505;28;20047;-71
2024/02/17 08:27:50;;;;;;;1.65;1.20;;;7.90;99.90;;;;;;5051337;28;20037;-71
2024/02/17 08:30:15;;;;;;;4.75;1.40;;;8.10;99.90;;;;;;5051245;28;20427;-71
2024/02/17 08:32:41;;;;;;;3.92;1.35;;;8.40;99.90;;;;;;5051114;28;20560;-71
2024/02/17 08:35:07;;;;;;;6.22;1.27;;;8.50;99.90;;;;;;5051436;28;20036;-71
2024/02/17 08:37:33;;;;;;;5.97;1.80;;;8.80;99.90;;;;;;5033421;28;20044;-71
2024/02/17 08:39:58;;;;;;;5.85;1.52;;;8.90;99.90;;;;;;5033246;28;20048;-71
2024/02/17 08:42:24;;;;;;;4.43;0.90;;;8.90;99.90;;;;;;5033294;28;20072;-71
2024/02/17 08:44:53;;;;;;;2.97;0.85;;;8.80;99.90;;;;;;5033438;28;20530;-71
2024/02/17 08:47:20;;;;;;;2.45;0.50;;;8.80;99.90;;;;;;5050550;28;20068;-71
2024/02/17 08:49:46;;;;;;;4.32;0.70;;;8.60;99.90;;;;;;5052725;28;20045;-73
2024/02/17 08:52:11;;;;;;;5.38;1.10;;;8.60;99.90;;;;;;5055075;28;20048;-71
2024/02/17 08:54:38;;;;;;;2.83;0.80;;;8.60;99.90;;;;;;5054964;28;20041;-71
2024/02/17 08:57:03;;;;;;;8.05;1.40;;;8.70;99.90;;;;;;5036959;28;20531;-71
2024/02/17 08:59:29;;;;;;;2.75;1.17;;;8.70;99.90;;;;;;5020455;28;20049;-71
2024/02/17 09:01:55;;;;;;;3.42;0.93;;;8.70;99.90;;;;;;5054516;28;20037;-71
2024/02/17 09:04:20;;;;;;;5.30;1.25;;;8.70;99.90;;;;;;5054985;28;20059;-71
2024/02/17 09:06:46;;;;;;;4.47;1.13;;;8.70;99.90;;;;;;5036802;28;20044;-71
2024/02/17 09:09:14;;;;;;;4.18;0.85;;;8.70;99.90;;;;;;5054793;28;20593;-71
2024/02/17 09:11:39;;;;;;;1.90;0.55;;;8.70;99.90;;;;;;5054129;28;20052;-71
2024/02/17 09:14:05;;;;;;;2.90;1.23;;;8.70;99.90;;;;;;5053996;28;20041;-71
2024/02/17 09:16:31;;;;;;;11.10;1.02;;;8.60;99.90;;;;;;5053972;28;20124;-71
2024/02/17 09:18:57;;;;;;;4.95;1.20;;;8.60;99.90;;;;;;5054101;28;20035;-71
2024/02/17 09:21:22;;;;;;;5.80;0.77;;;8.60;99.90;;;;;;5035769;28;20506;-71
2024/02/17 09:23:48;;;;;;;5.25;1.00;;;8.60;99.90;;;;;;5054089;28;20112;-70
2024/02/17 09:26:14;;;;;;;2.28;0.88;;;8.60;99.90;;;;;;5054394;28;20037;-71
2024/02/17 09:28:39;;;;;;;1.55;0.73;;;8.60;99.90;;;;;;5053762;28;20029;-71
2024/02/17 09:31:05;;;;;;;1.63;0.70;;;8.60;99.90;;;;;;5053339;28;20131;-71
2024/02/17 09:33:31;;;;;;;5.15;0.77;;;8.60;99.90;;;;;;5036422;28;20041;-70
2024/02/17 09:35:57;;;;;;;5.07;0.88;;;8.50;99.90;;;;;;5054346;28;20029;-71
2024/02/17 09:38:25;;;;;;;5.82;0.98;;;8.60;99.90;;;;;;5054097;28;20037;-70
2024/02/17 09:40:51;;;;;;;5.93;0.93;;;8.50;99.90;;;;;;5053912;28;20044;-71
2024/02/17 09:43:17;;;;;;;6.35;1.00;;;8.50;99.90;;;;;;5053852;28;20128;-70
2024/02/17 09:45:43;;;;;;;2.67;0.73;;;8.50;99.90;;;;;;5053776;28;20476;-70
2024/02/17 09:48:11;;;;;;;4.07;0.70;;;8.50;99.90;;;;;;5053721;28;20115;-70
2024/02/17 09:50:37;;;;;;;4.40;0.75;;;8.50;99.90;;;;;;5053817;28;20041;-70
2024/02/17 09:53:05;;;;;;;3.03;0.77;;;8.60;99.90;;;;;;5053726;28;20068;-70
2024/02/17 09:55:31;;;;;;;4.10;1.25;;;8.60;99.90;;;;;;5035888;28;20044;-70
2024/02/17 09:57:57;;;;;;;3.88;0.95;;;8.80;99.90;;;;;;5053652;28;20033;-71
2024/02/17 10:00:23;;;;;;;5.88;0.82;;;8.90;99.90;;;;;;5053423;28;20037;-70
2024/02/17 10:02:51;;;;;;;7.40;1.02;;;9.10;99.90;;;;;;5053206;28;20067;-71
2024/02/17 10:05:20;;;;;;;5.10;0.73;;;9.20;99.90;;;;;;5053536;28;20500;-71
2024/02/17 10:07:53;;;;;;;9.65;1.98;;;9.10;99.90;;;;;;5053597;28;20041;-71
2024/02/17 10:10:21;;;;;;;5.25;1.17;;;9.10;99.90;;;;;;5053332;28;20044;-71
2024/02/17 10:12:51;;;;;;;5.68;1.00;;;9.00;99.90;;;;;;5053209;28;20040;-71
2024/02/17 10:15:19;;;;;;;5.97;1.10;;;8.90;99.90;;;;;;5053553;28;20076;-71
2024/02/17 10:17:45;;;;;;;5.78;1.70;;;9.00;99.90;;;;;;5053554;28;20044;-71
2024/02/17 10:20:11;;;;;;;2.83;1.08;;;9.10;99.90;;;;;;5053303;28;20059;-71
2024/02/17 10:22:38;;;;;;;4.20;1.10;;;9.20;99.90;;;;;;5053120;28;20037;-71
2024/02/17 10:25:05;;;;;;;7.47;1.05;;;9.10;99.90;;;;;;5053107;28;20040;-71
2024/02/17 10:27:32;;;;;;;3.50;1.23;;;9.00;99.90;;;;;;5052984;28;20052;-71
2024/02/17 10:30:13;;;;;;;8.70;2.72;;;9.00;99.90;;;;;;5052967;28;20126;-71
2024/02/17 10:32:40;;;;;;;11.20;1.50;;;9.00;99.90;;;;;;5053057;28;20041;-71
2024/02/17 10:35:07;;;;;;;4.45;1.15;;;9.00;99.90;;;;;;5041499;28;20157;-71
2024/02/17 10:37:35;;;;;;;10.93;1.48;;;9.10;99.90;;;;;;5032980;28;20061;-71
2024/02/17 10:40:08;;;;;;;8.18;1.40;;;9.20;99.90;;;;;;5032502;28;20416;-71
2024/02/17 10:42:34;;;;;;;;;;;9.20;99.90;;;;;;5033245;28;20516;-71
2024/02/17 10:45:01;;;;;;;5.53;1.30;;;9.10;99.90;;;;;;5015368;28;19917;-71
2024/02/17 10:47:35;;;;;;;5.03;1.38;;;9.00;99.90;;;;;;5015141;28;20405;-71
2024/02/17 10:50:01;;;;;;;4.90;1.30;;;9.00;99.90;;;;;;5032547;28;20073;-71
2024/02/17 10:52:32;;;;;;;10.35;1.50;;;8.90;99.90;;;;;;5027805;28;20102;-72
2024/02/17 10:55:05;;;;;;;7.80;1.38;;;8.90;99.90;;;;;;5024713;28;20053;-71
2024/02/17 10:57:37;;;;;;;5.95;1.73;;;8.90;99.90;;;;;;5049589;28;20025;-70
2024/02/17 11:00:03;;;;;;;11.50;2.40;;;8.80;99.90;;;;;;5051983;28;20033;-71
2024/02/17 11:02:30;;;;;;;4.72;0.93;;;8.70;99.90;;;;;;5052023;28;20037;-71
2024/02/17 11:04:56;;;;;;;4.55;1.00;;;8.70;99.90;;;;;;5052158;28;20044;-71
2024/02/17 11:07:22;;;;;;;6.70;1.40;;;8.60;99.90;;;;;;5052629;28;20469;-71
2024/02/17 11:09:49;;;;;;;9.65;1.95;;;8.70;99.90;;;;;;5051355;28;20456;-72
2024/02/17 11:12:27;;;;;;;5.78;1.17;;;8.70;99.90;;;;;;5051296;28;20509;-71
2024/02/17 11:14:59;;;;;;;4.50;1.35;;;8.80;99.90;;;;;;5051694;28;20451;-71
2024/02/17 11:17:24;;;;;;;4.05;1.10;;;8.80;99.90;;;;;;5052133;28;20048;-71
2024/02/17 11:20:06;;;;;;;11.25;1.23;;;9.00;99.90;;;;;;5052256;28;20041;-71
2024/02/17 11:22:34;;;;;;;9.85;1.30;;;9.10;99.90;;;;;;5052054;28;20115;-71
2024/02/17 11:25:04;;;;;;;6.95;1.42;;;9.20;99.90;;;;;;5052077;28;20389;-71
2024/02/17 11:27:30;;;;;;;8.43;1.45;;;9.20;99.90;;;;;;5052127;28;20088;-71
2024/02/17 11:29:59;;;;;;;7.57;1.17;;;9.30;99.90;;;;;;5051651;28;20455;-71
2024/02/17 11:32:30;;;;;;;8.52;1.50;;;9.20;99.90;;;;;;5051705;28;20048;-71
2024/02/17 11:34:56;;;;;;;6.63;1.02;;;9.20;99.90;;;;;;5051957;28;20041;-71
2024/02/17 11:37:23;;;;;;;6.60;1.85;;;9.20;99.90;;;;;;5051893;28;20033;-72
2024/02/17 11:39:52;;;;;;;11.80;1.50;;;9.30;99.90;;;;;;5051715;28;20041;-71
2024/02/17 11:42:18;;;;;;;6.68;1.35;;;9.30;99.90;;;;;;5051514;28;20052;-71
2024/02/17 11:44:47;;;;;;;4.10;1.20;;;9.30;99.90;;;;;;5051982;28;20404;-71
2024/02/17 11:47:14;;;;;;;6.22;1.88;;;9.30;99.90;;;;;;5051959;28;20037;-71
2024/02/17 11:49:39;;;;;;;4.70;1.00;;;9.40;99.90;;;;;;5051672;28;20037;-71
2024/02/17 11:52:06;;;;;;;5.70;1.20;;;9.40;99.90;;;;;;5033637;28;20045;-71
2024/02/17 11:54:34;;;;;;;2.78;0.90;;;9.40;99.90;;;;;;5051603;28;20036;-71
2024/02/17 11:57:02;;;;;;;8.80;1.60;;;9.40;99.90;;;;;;5033756;28;20068;-71
2024/02/17 11:59:28;;;;;;;4.95;1.17;;;9.40;99.90;;;;;;5051664;28;20136;-71
2024/02/17 12:01:54;;;;;;;6.97;1.05;;;9.50;99.90;;;;;;5051466;28;20114;-71
2024/02/17 12:04:23;;;;;;;4.38;1.30;;;9.40;99.90;;;;;;5051702;28;20051;-71
2024/02/17 12:06:49;;;;;;;10.38;1.45;;;9.50;99.90;;;;;;5033859;28;20119;-71
2024/02/17 12:09:15;;;;;;;7.63;1.40;;;9.50;99.90;;;;;;5050923;28;20037;-72
2024/02/17 12:11:42;;;;;;;4.30;1.60;;;9.50;99.90;;;;;;5033037;28;20041;-71
2024/02/17 12:14:09;;;;;;;6.85;1.85;;;9.70;99.90;;;;;;5051293;28;20513;-71
2024/02/17 12:16:35;;;;;;;3.40;1.23;;;9.70;99.90;;;;;;5051545;28;20052;-72
2024/02/17 12:19:07;;;;;;;6.03;1.13;;;9.80;99.90;;;;;;5033408;28;20094;-71
2024/02/17 12:21:34;;;;;;;4.75;1.70;;;9.90;99.90;;;;;;5033331;28;20045;-72
2024/02/17 12:24:00;;;;;;;3.45;0.95;;;10.00;99.90;;;;;;5051506;28;20041;-71
2024/02/17 12:26:28;;;;;;;3.83;1.27;;;10.00;99.90;;;;;;5037478;28;20040;-71
2024/02/17 12:28:55;;;;;;;3.55;1.15;;;10.00;99.90;;;;;;5055484;28;20041;-71
2024/02/17 12:31:24;;;;;;;7.32;1.30;;;10.10;99.90;;;;;;5037396;28;20439;-72
2024/02/17 12:33:51;;;;;;;7.10;1.30;;;10.10;99.90;;;;;;5055392;28;20396;-72
2024/02/17 12:36:21;;;;;;;10.00;1.30;;;10.10;99.90;;;;;;5055312;28;20037;-71
2024/02/17 12:38:46;;;;;;;5.65;1.10;;;10.10;99.90;;;;;;5036160;28;20117;-72
2024/02/17 12:41:16;;;;;;;5.78;1.45;;;10.00;99.90;;;;;;5028971;28;20576;-72
2024/02/17 12:43:47;;;;;;;4.72;1.25;;;10.00;99.90;;;;;;5055186;28;20045;-72
2024/02/17 12:46:24;;;;;;;8.68;1.27;;;9.90;99.90;;;;;;5046792;28;20377;-72
2024/02/17 12:48:50;;;;;;;6.20;1.60;;;10.00;99.90;;;;;;5037067;28;20361;-74
2024/02/17 12:51:20;;;;;;;4.50;1.30;;;10.00;99.90;;;;;;5036834;28;20045;-71